sensor_id;sensor_type;location;lat;lon;timestamp;P1;durP1;ratioP1;P2;durP2;ratioP2
5612;SDS011;63463;53.586;9.928;2022-12-05T00:03:57;36.83;;;17.70;;
5612;SDS011;63463;53.586;9.928;2022-12-05T00:06:24;41.07;;;18.63;;
5612;SDS011;63463;53.586;9.928;2022-12-05T00:08:51;45.73;;;17.30;;
5612;SDS011;63463;53.586;9.928;2022-12-05T00:11:19;38.33;;;18.73;;
5612;SDS011;63463;53.586;9.928;2022-12-05T00:13:46;34.63;;;17.77;;
5612;SDS011;63463;53.586;9.928;2022-12-05T00:16:14;35.33;;;18.57;;
5612;SDS011;63463;53.586;9.928;2022-12-05T00:18:41;31.60;;;16.10;;
5612;SDS011;63463;53.586;9.928;2022-12-05T00:21:11;32.60;;;16.20;;
5612;SDS011;63463;53.586;9.928;2022-12-05T00:23:37;34.73;;;17.07;;
5612;SDS011;63463;53.586;9.928;2022-12-05T00:26:03;35.67;;;17.77;;
5612;SDS011;63463;53.586;9.928;2022-12-05T00:28:31;36.83;;;17.40;;
5612;SDS011;63463;53.586;9.928;2022-12-05T00:31:01;32.10;;;16.77;;
5612;SDS011;63463;53.586;9.928;2022-12-05T00:33:27;39.73;;;16.97;;
5612;SDS011;63463;53.586;9.928;2022-12-05T00:35:53;27.90;;;15.97;;
5612;SDS011;63463;53.586;9.928;2022-12-05T00:38:19;34.30;;;16.63;;
5612;SDS011;63463;53.586;9.928;2022-12-05T00:40:45;36.67;;;17.60;;
5612;SDS011;63463;53.586;9.928;2022-12-05T00:43:11;31.93;;;17.20;;
5612;SDS011;63463;53.586;9.928;2022-12-05T00:45:37;29.93;;;15.87;;
5612;SDS011;63463;53.586;9.928;2022-12-05T00:48:03;31.70;;;16.90;;
5612;SDS011;63463;53.586;9.928;2022-12-05T00:50:29;31.63;;;16.67;;
5612;SDS011;63463;53.586;9.928;2022-12-05T00:52:55;29.00;;;15.77;;
5612;SDS011;63463;53.586;9.928;2022-12-05T00:55:21;32.37;;;16.60;;
5612;SDS011;63463;53.586;9.928;2022-12-05T00:57:47;32.83;;;16.33;;
5612;SDS011;63463;53.586;9.928;2022-12-05T01:00:13;33.50;;;17.30;;
5612;SDS011;63463;53.586;9.928;2022-12-05T01:02:40;33.77;;;16.70;;
5612;SDS011;63463;53.586;9.928;2022-12-05T01:05:06;29.50;;;15.60;;
5612;SDS011;63463;53.586;9.928;2022-12-05T01:07:32;30.40;;;15.63;;
5612;SDS011;63463;53.586;9.928;2022-12-05T01:09:58;27.70;;;15.50;;
5612;SDS011;63463;53.586;9.928;2022-12-05T01:12:25;27.67;;;16.30;;
5612;SDS011;63463;53.586;9.928;2022-12-05T01:14:52;33.30;;;17.20;;
5612;SDS011;63463;53.586;9.928;2022-12-05T01:17:18;30.13;;;16.43;;
5612;SDS011;63463;53.586;9.928;2022-12-05T01:19:44;35.90;;;16.83;;
5612;SDS011;63463;53.586;9.928;2022-12-05T01:22:10;28.00;;;17.23;;
5612;SDS011;63463;53.586;9.928;2022-12-05T01:24:36;33.17;;;17.97;;
5612;SDS011;63463;53.586;9.928;2022-12-05T01:27:02;33.10;;;18.00;;
5612;SDS011;63463;53.586;9.928;2022-12-05T01:29:28;33.10;;;18.13;;
5612;SDS011;63463;53.586;9.928;2022-12-05T01:31:54;35.80;;;17.77;;
5612;SDS011;63463;53.586;9.928;2022-12-05T01:34:20;38.50;;;17.27;;
5612;SDS011;63463;53.586;9.928;2022-12-05T01:36:46;31.53;;;17.67;;
5612;SDS011;63463;53.586;9.928;2022-12-05T01:39:12;30.80;;;18.10;;
5612;SDS011;63463;53.586;9.928;2022-12-05T01:41:40;41.17;;;19.80;;
5612;SDS011;63463;53.586;9.928;2022-12-05T01:44:58;43.97;;;20.27;;
5612;SDS011;63463;53.586;9.928;2022-12-05T01:46:53;35.87;;;18.40;;
5612;SDS011;63463;53.586;9.928;2022-12-05T01:49:22;34.53;;;18.17;;
5612;SDS011;63463;53.586;9.928;2022-12-05T01:51:49;32.70;;;18.00;;
5612;SDS011;63463;53.586;9.928;2022-12-05T01:54:16;31.70;;;17.73;;
5612;SDS011;63463;53.586;9.928;2022-12-05T01:56:43;37.87;;;17.70;;
5612;SDS011;63463;53.586;9.928;2022-12-05T01:59:11;37.90;;;17.03;;
5612;SDS011;63463;53.586;9.928;2022-12-05T02:01:37;29.87;;;16.53;;
5612;SDS011;63463;53.586;9.928;2022-12-05T02:04:03;34.00;;;16.10;;
5612;SDS011;63463;53.586;9.928;2022-12-05T02:06:30;28.13;;;15.50;;
5612;SDS011;63463;53.586;9.928;2022-12-05T02:08:56;30.70;;;16.30;;
5612;SDS011;63463;53.586;9.928;2022-12-05T02:11:23;31.97;;;17.00;;
5612;SDS011;63463;53.586;9.928;2022-12-05T02:14:13;32.00;;;15.87;;
5612;SDS011;63463;53.586;9.928;2022-12-05T02:24:52;27.23;;;16.33;;
5612;SDS011;63463;53.586;9.928;2022-12-05T02:30:09;29.37;;;16.13;;
5612;SDS011;63463;53.586;9.928;2022-12-05T02:35:29;28.73;;;16.30;;
5612;SDS011;63463;53.586;9.928;2022-12-05T02:45:40;29.40;;;15.80;;
5612;SDS011;63463;53.586;9.928;2022-12-05T02:48:08;37.63;;;19.20;;
5612;SDS011;63463;53.586;9.928;2022-12-05T02:50:36;34.37;;;17.60;;
5612;SDS011;63463;53.586;9.928;2022-12-05T02:53:05;37.03;;;18.27;;
5612;SDS011;63463;53.586;9.928;2022-12-05T02:55:32;34.73;;;17.70;;
5612;SDS011;63463;53.586;9.928;2022-12-05T02:58:00;34.73;;;17.10;;
5612;SDS011;63463;53.586;9.928;2022-12-05T03:00:28;44.20;;;18.07;;
5612;SDS011;63463;53.586;9.928;2022-12-05T03:02:55;46.10;;;19.03;;
5612;SDS011;63463;53.586;9.928;2022-12-05T03:08:24;39.70;;;17.50;;
5612;SDS011;63463;53.586;9.928;2022-12-05T03:10:52;41.03;;;17.70;;
5612;SDS011;63463;53.586;9.928;2022-12-05T03:13:20;41.40;;;18.60;;
5612;SDS011;63463;53.586;9.928;2022-12-05T03:15:49;31.40;;;16.10;;
5612;SDS011;63463;53.586;9.928;2022-12-05T03:18:20;32.10;;;16.53;;
5612;SDS011;63463;53.586;9.928;2022-12-05T03:20:48;34.63;;;17.17;;
5612;SDS011;63463;53.586;9.928;2022-12-05T03:23:22;35.87;;;18.00;;
5612;SDS011;63463;53.586;9.928;2022-12-05T03:28:32;36.90;;;17.87;;
5612;SDS011;63463;53.586;9.928;2022-12-05T03:31:02;36.57;;;17.00;;
5612;SDS011;63463;53.586;9.928;2022-12-05T03:33:34;30.80;;;16.97;;
5612;SDS011;63463;53.586;9.928;2022-12-05T03:36:07;42.03;;;18.17;;
5612;SDS011;63463;53.586;9.928;2022-12-05T03:39:21;37.00;;;18.20;;
5612;SDS011;63463;53.586;9.928;2022-12-05T03:43:53;38.43;;;17.10;;
5612;SDS011;63463;53.586;9.928;2022-12-05T03:46:23;38.50;;;17.40;;
5612;SDS011;63463;53.586;9.928;2022-12-05T03:48:58;39.13;;;17.77;;
5612;SDS011;63463;53.586;9.928;2022-12-05T03:51:27;28.80;;;15.60;;
5612;SDS011;63463;53.586;9.928;2022-12-05T03:53:57;38.00;;;18.43;;
5612;SDS011;63463;53.586;9.928;2022-12-05T03:56:26;37.37;;;17.37;;
5612;SDS011;63463;53.586;9.928;2022-12-05T03:59:01;41.83;;;17.80;;
5612;SDS011;63463;53.586;9.928;2022-12-05T04:01:27;38.77;;;18.87;;
5612;SDS011;63463;53.586;9.928;2022-12-05T04:03:56;37.37;;;18.30;;
5612;SDS011;63463;53.586;9.928;2022-12-05T04:06:32;38.70;;;18.83;;
5612;SDS011;63463;53.586;9.928;2022-12-05T04:09:00;39.30;;;19.17;;
5612;SDS011;63463;53.586;9.928;2022-12-05T04:11:28;45.87;;;19.80;;
5612;SDS011;63463;53.586;9.928;2022-12-05T04:14:31;37.93;;;19.17;;
5612;SDS011;63463;53.586;9.928;2022-12-05T04:16:49;36.17;;;17.30;;
5612;SDS011;63463;53.586;9.928;2022-12-05T04:22:15;45.47;;;19.33;;
5612;SDS011;63463;53.586;9.928;2022-12-05T04:24:41;36.47;;;18.20;;
5612;SDS011;63463;53.586;9.928;2022-12-05T04:30:03;45.77;;;19.97;;
5612;SDS011;63463;53.586;9.928;2022-12-05T04:32:33;47.00;;;20.17;;
5612;SDS011;63463;53.586;9.928;2022-12-05T04:35:02;37.20;;;19.50;;
5612;SDS011;63463;53.586;9.928;2022-12-05T04:37:31;49.27;;;18.80;;
5612;SDS011;63463;53.586;9.928;2022-12-05T04:40:00;44.60;;;19.53;;
5612;SDS011;63463;53.586;9.928;2022-12-05T04:42:28;51.27;;;20.07;;
5612;SDS011;63463;53.586;9.928;2022-12-05T04:45:06;52.47;;;21.83;;
5612;SDS011;63463;53.586;9.928;2022-12-05T04:47:41;44.17;;;19.47;;
5612;SDS011;63463;53.586;9.928;2022-12-05T04:50:08;42.93;;;20.10;;
5612;SDS011;63463;53.586;9.928;2022-12-05T04:52:35;55.17;;;20.70;;
5612;SDS011;63463;53.586;9.928;2022-12-05T04:55:13;49.93;;;18.53;;
5612;SDS011;63463;53.586;9.928;2022-12-05T04:58:13;44.60;;;19.30;;
5612;SDS011;63463;53.586;9.928;2022-12-05T05:00:33;47.70;;;19.73;;
5612;SDS011;63463;53.586;9.928;2022-12-05T05:03:09;54.00;;;17.53;;
5612;SDS011;63463;53.586;9.928;2022-12-05T05:05:37;49.73;;;19.97;;
5612;SDS011;63463;53.586;9.928;2022-12-05T05:08:03;42.17;;;18.90;;
5612;SDS011;63463;53.586;9.928;2022-12-05T05:10:32;39.30;;;19.27;;
5612;SDS011;63463;53.586;9.928;2022-12-05T05:13:00;44.60;;;19.07;;
5612;SDS011;63463;53.586;9.928;2022-12-05T05:15:26;39.17;;;18.30;;
5612;SDS011;63463;53.586;9.928;2022-12-05T05:17:52;41.93;;;19.53;;
5612;SDS011;63463;53.586;9.928;2022-12-05T05:20:18;45.30;;;19.33;;
5612;SDS011;63463;53.586;9.928;2022-12-05T05:22:51;53.60;;;19.80;;
5612;SDS011;63463;53.586;9.928;2022-12-05T05:25:18;51.90;;;19.73;;
5612;SDS011;63463;53.586;9.928;2022-12-05T05:27:48;44.13;;;18.50;;
5612;SDS011;63463;53.586;9.928;2022-12-05T05:30:14;45.70;;;19.93;;
5612;SDS011;63463;53.586;9.928;2022-12-05T05:32:40;46.03;;;19.10;;
5612;SDS011;63463;53.586;9.928;2022-12-05T05:35:06;40.57;;;19.20;;
5612;SDS011;63463;53.586;9.928;2022-12-05T05:37:32;50.83;;;19.77;;
5612;SDS011;63463;53.586;9.928;2022-12-05T05:39:58;46.17;;;19.50;;
5612;SDS011;63463;53.586;9.928;2022-12-05T05:42:24;52.23;;;19.77;;
5612;SDS011;63463;53.586;9.928;2022-12-05T05:44:50;57.17;;;20.53;;
5612;SDS011;63463;53.586;9.928;2022-12-05T05:47:16;52.40;;;20.27;;
5612;SDS011;63463;53.586;9.928;2022-12-05T05:49:42;53.17;;;20.90;;
5612;SDS011;63463;53.586;9.928;2022-12-05T05:52:08;55.00;;;21.20;;
5612;SDS011;63463;53.586;9.928;2022-12-05T05:54:34;56.13;;;20.50;;
5612;SDS011;63463;53.586;9.928;2022-12-05T05:57:00;53.27;;;20.57;;
5612;SDS011;63463;53.586;9.928;2022-12-05T05:59:26;48.27;;;21.73;;
5612;SDS011;63463;53.586;9.928;2022-12-05T06:01:52;46.83;;;21.33;;
5612;SDS011;63463;53.586;9.928;2022-12-05T06:04:18;52.83;;;21.13;;
5612;SDS011;63463;53.586;9.928;2022-12-05T06:06:44;59.53;;;21.57;;
5612;SDS011;63463;53.586;9.928;2022-12-05T06:09:10;56.63;;;22.20;;
5612;SDS011;63463;53.586;9.928;2022-12-05T06:11:36;68.50;;;22.50;;
5612;SDS011;63463;53.586;9.928;2022-12-05T06:14:02;60.43;;;21.43;;
5612;SDS011;63463;53.586;9.928;2022-12-05T06:16:29;53.13;;;20.83;;
5612;SDS011;63463;53.586;9.928;2022-12-05T06:18:55;67.60;;;23.27;;
5612;SDS011;63463;53.586;9.928;2022-12-05T06:21:21;61.03;;;20.80;;
5612;SDS011;63463;53.586;9.928;2022-12-05T06:23:48;78.23;;;22.73;;
5612;SDS011;63463;53.586;9.928;2022-12-05T06:26:15;57.90;;;23.00;;
5612;SDS011;63463;53.586;9.928;2022-12-05T06:28:41;63.40;;;21.03;;
5612;SDS011;63463;53.586;9.928;2022-12-05T06:31:09;60.17;;;22.87;;
5612;SDS011;63463;53.586;9.928;2022-12-05T06:33:35;72.60;;;24.20;;
5612;SDS011;63463;53.586;9.928;2022-12-05T06:36:02;62.03;;;23.17;;
5612;SDS011;63463;53.586;9.928;2022-12-05T06:38:28;66.03;;;22.60;;
5612;SDS011;63463;53.586;9.928;2022-12-05T06:40:54;66.90;;;21.57;;
5612;SDS011;63463;53.586;9.928;2022-12-05T06:43:20;71.53;;;24.27;;
5612;SDS011;63463;53.586;9.928;2022-12-05T06:45:46;62.13;;;20.60;;
5612;SDS011;63463;53.586;9.928;2022-12-05T06:48:12;50.57;;;22.10;;
5612;SDS011;63463;53.586;9.928;2022-12-05T06:50:38;68.60;;;24.63;;
5612;SDS011;63463;53.586;9.928;2022-12-05T06:53:05;56.30;;;21.57;;
5612;SDS011;63463;53.586;9.928;2022-12-05T06:55:30;62.70;;;22.43;;
5612;SDS011;63463;53.586;9.928;2022-12-05T06:57:57;62.87;;;23.23;;
5612;SDS011;63463;53.586;9.928;2022-12-05T07:00:23;72.23;;;21.17;;
5612;SDS011;63463;53.586;9.928;2022-12-05T07:03:09;77.23;;;24.80;;
5612;SDS011;63463;53.586;9.928;2022-12-05T07:05:35;65.53;;;23.40;;
5612;SDS011;63463;53.586;9.928;2022-12-05T07:08:01;76.10;;;25.10;;
5612;SDS011;63463;53.586;9.928;2022-12-05T07:10:27;81.17;;;24.97;;
5612;SDS011;63463;53.586;9.928;2022-12-05T07:12:53;70.50;;;24.60;;
5612;SDS011;63463;53.586;9.928;2022-12-05T07:15:20;67.63;;;22.13;;
5612;SDS011;63463;53.586;9.928;2022-12-05T07:17:46;78.80;;;24.90;;
5612;SDS011;63463;53.586;9.928;2022-12-05T07:20:12;62.53;;;23.57;;
5612;SDS011;63463;53.586;9.928;2022-12-05T07:22:41;65.07;;;23.73;;
5612;SDS011;63463;53.586;9.928;2022-12-05T07:25:07;73.13;;;22.73;;
5612;SDS011;63463;53.586;9.928;2022-12-05T07:27:34;75.63;;;23.07;;
5612;SDS011;63463;53.586;9.928;2022-12-05T07:29:59;70.83;;;23.00;;
5612;SDS011;63463;53.586;9.928;2022-12-05T07:32:25;79.07;;;22.83;;
5612;SDS011;63463;53.586;9.928;2022-12-05T07:34:51;77.57;;;23.97;;
5612;SDS011;63463;53.586;9.928;2022-12-05T07:37:17;82.37;;;22.73;;
5612;SDS011;63463;53.586;9.928;2022-12-05T07:39:43;72.87;;;23.10;;
5612;SDS011;63463;53.586;9.928;2022-12-05T07:42:09;77.27;;;23.27;;
5612;SDS011;63463;53.586;9.928;2022-12-05T07:44:35;69.57;;;24.70;;
5612;SDS011;63463;53.586;9.928;2022-12-05T07:47:01;70.13;;;24.60;;
5612;SDS011;63463;53.586;9.928;2022-12-05T07:49:27;80.33;;;22.90;;
5612;SDS011;63463;53.586;9.928;2022-12-05T07:51:53;75.13;;;24.60;;
5612;SDS011;63463;53.586;9.928;2022-12-05T07:54:19;76.57;;;24.53;;
5612;SDS011;63463;53.586;9.928;2022-12-05T07:56:45;72.90;;;23.43;;
5612;SDS011;63463;53.586;9.928;2022-12-05T07:59:11;73.33;;;23.53;;
5612;SDS011;63463;53.586;9.928;2022-12-05T08:01:37;65.13;;;21.53;;
5612;SDS011;63463;53.586;9.928;2022-12-05T08:04:03;61.63;;;21.43;;
5612;SDS011;63463;53.586;9.928;2022-12-05T08:06:29;59.37;;;21.33;;
5612;SDS011;63463;53.586;9.928;2022-12-05T08:08:56;66.50;;;20.47;;
5612;SDS011;63463;53.586;9.928;2022-12-05T08:11:24;62.63;;;22.10;;
5612;SDS011;63463;53.586;9.928;2022-12-05T08:13:51;72.20;;;21.40;;
5612;SDS011;63463;53.586;9.928;2022-12-05T08:16:19;65.20;;;22.00;;
5612;SDS011;63463;53.586;9.928;2022-12-05T08:18:45;55.13;;;20.83;;
5612;SDS011;63463;53.586;9.928;2022-12-05T08:21:12;65.67;;;21.90;;
5612;SDS011;63463;53.586;9.928;2022-12-05T08:23:39;62.17;;;21.53;;
5612;SDS011;63463;53.586;9.928;2022-12-05T08:26:15;61.93;;;21.47;;
5612;SDS011;63463;53.586;9.928;2022-12-05T08:28:41;57.43;;;21.50;;
5612;SDS011;63463;53.586;9.928;2022-12-05T08:31:12;58.73;;;21.13;;
5612;SDS011;63463;53.586;9.928;2022-12-05T08:33:39;60.63;;;20.20;;
5612;SDS011;63463;53.586;9.928;2022-12-05T08:36:06;59.53;;;20.70;;
5612;SDS011;63463;53.586;9.928;2022-12-05T08:38:32;61.17;;;21.90;;
5612;SDS011;63463;53.586;9.928;2022-12-05T08:41:02;54.10;;;18.70;;
5612;SDS011;63463;53.586;9.928;2022-12-05T08:43:28;44.30;;;18.27;;
5612;SDS011;63463;53.586;9.928;2022-12-05T08:45:55;60.97;;;19.87;;
5612;SDS011;63463;53.586;9.928;2022-12-05T08:48:21;56.57;;;19.63;;
5612;SDS011;63463;53.586;9.928;2022-12-05T08:50:47;66.83;;;20.53;;
5612;SDS011;63463;53.586;9.928;2022-12-05T08:53:14;57.33;;;20.90;;
5612;SDS011;63463;53.586;9.928;2022-12-05T08:55:40;58.03;;;20.23;;
5612;SDS011;63463;53.586;9.928;2022-12-05T08:58:06;58.97;;;21.53;;
5612;SDS011;63463;53.586;9.928;2022-12-05T09:00:32;62.10;;;20.37;;
5612;SDS011;63463;53.586;9.928;2022-12-05T09:02:58;73.77;;;22.57;;
5612;SDS011;63463;53.586;9.928;2022-12-05T09:05:24;56.67;;;20.43;;
5612;SDS011;63463;53.586;9.928;2022-12-05T09:07:50;65.77;;;20.50;;
5612;SDS011;63463;53.586;9.928;2022-12-05T09:10:16;50.23;;;19.80;;
5612;SDS011;63463;53.586;9.928;2022-12-05T09:12:42;73.27;;;21.47;;
5612;SDS011;63463;53.586;9.928;2022-12-05T09:15:09;63.97;;;20.53;;
5612;SDS011;63463;53.586;9.928;2022-12-05T09:17:35;60.67;;;21.57;;
5612;SDS011;63463;53.586;9.928;2022-12-05T09:20:02;53.07;;;19.13;;
5612;SDS011;63463;53.586;9.928;2022-12-05T09:22:29;58.17;;;19.70;;
5612;SDS011;63463;53.586;9.928;2022-12-05T09:24:55;59.03;;;20.27;;
5612;SDS011;63463;53.586;9.928;2022-12-05T09:27:21;58.00;;;20.20;;
5612;SDS011;63463;53.586;9.928;2022-12-05T09:29:47;63.93;;;19.30;;
5612;SDS011;63463;53.586;9.928;2022-12-05T09:32:13;54.73;;;19.90;;
5612;SDS011;63463;53.586;9.928;2022-12-05T09:34:39;56.10;;;19.63;;
5612;SDS011;63463;53.586;9.928;2022-12-05T09:37:05;61.30;;;19.97;;
5612;SDS011;63463;53.586;9.928;2022-12-05T09:39:32;45.93;;;18.47;;
5612;SDS011;63463;53.586;9.928;2022-12-05T09:42:07;60.57;;;21.90;;
5612;SDS011;63463;53.586;9.928;2022-12-05T09:44:55;45.60;;;18.83;;
5612;SDS011;63463;53.586;9.928;2022-12-05T09:49:56;61.90;;;20.00;;
5612;SDS011;63463;53.586;9.928;2022-12-05T09:52:28;45.53;;;17.50;;
5612;SDS011;63463;53.586;9.928;2022-12-05T09:54:55;53.17;;;17.63;;
5612;SDS011;63463;53.586;9.928;2022-12-05T09:57:29;47.27;;;18.90;;
5612;SDS011;63463;53.586;9.928;2022-12-05T09:59:58;38.83;;;17.53;;
5612;SDS011;63463;53.586;9.928;2022-12-05T10:02:27;61.07;;;19.27;;
5612;SDS011;63463;53.586;9.928;2022-12-05T10:04:54;44.13;;;17.07;;
5612;SDS011;63463;53.586;9.928;2022-12-05T10:07:32;49.83;;;16.87;;
5612;SDS011;63463;53.586;9.928;2022-12-05T10:15:01;38.23;;;15.83;;
5612;SDS011;63463;53.586;9.928;2022-12-05T10:17:32;41.37;;;16.60;;
5612;SDS011;63463;53.586;9.928;2022-12-05T10:19:59;37.93;;;15.87;;
5612;SDS011;63463;53.586;9.928;2022-12-05T10:22:28;46.87;;;16.70;;
5612;SDS011;63463;53.586;9.928;2022-12-05T10:24:55;44.80;;;17.27;;
5612;SDS011;63463;53.586;9.928;2022-12-05T10:27:35;50.00;;;16.70;;
5612;SDS011;63463;53.586;9.928;2022-12-05T10:30:06;40.53;;;16.70;;
5612;SDS011;63463;53.586;9.928;2022-12-05T10:35:13;36.73;;;15.13;;
5612;SDS011;63463;53.586;9.928;2022-12-05T10:37:41;45.90;;;17.23;;
5612;SDS011;63463;53.586;9.928;2022-12-05T10:40:10;42.57;;;16.43;;
5612;SDS011;63463;53.586;9.928;2022-12-05T10:42:37;41.60;;;16.63;;
5612;SDS011;63463;53.586;9.928;2022-12-05T10:45:12;43.63;;;18.00;;
5612;SDS011;63463;53.586;9.928;2022-12-05T10:47:39;44.97;;;16.50;;
5612;SDS011;63463;53.586;9.928;2022-12-05T10:50:06;42.37;;;16.77;;
5612;SDS011;63463;53.586;9.928;2022-12-05T10:52:38;47.77;;;17.27;;
5612;SDS011;63463;53.586;9.928;2022-12-05T10:55:04;46.40;;;17.33;;
5612;SDS011;63463;53.586;9.928;2022-12-05T10:57:32;46.87;;;16.67;;
5612;SDS011;63463;53.586;9.928;2022-12-05T11:00:08;45.50;;;16.63;;
5612;SDS011;63463;53.586;9.928;2022-12-05T11:02:34;58.93;;;17.50;;
5612;SDS011;63463;53.586;9.928;2022-12-05T11:05:02;46.53;;;17.67;;
5612;SDS011;63463;53.586;9.928;2022-12-05T11:07:29;44.90;;;17.23;;
5612;SDS011;63463;53.586;9.928;2022-12-05T11:09:56;41.13;;;16.70;;
5612;SDS011;63463;53.586;9.928;2022-12-05T11:14:53;49.10;;;18.33;;
5612;SDS011;63463;53.586;9.928;2022-12-05T11:17:24;43.57;;;17.40;;
5612;SDS011;63463;53.586;9.928;2022-12-05T11:19:50;43.13;;;16.93;;
5612;SDS011;63463;53.586;9.928;2022-12-05T11:22:16;52.90;;;17.67;;
5612;SDS011;63463;53.586;9.928;2022-12-05T11:24:42;50.57;;;17.90;;
5612;SDS011;63463;53.586;9.928;2022-12-05T11:29:41;36.33;;;17.20;;
5612;SDS011;63463;53.586;9.928;2022-12-05T11:32:21;43.33;;;17.50;;
5612;SDS011;63463;53.586;9.928;2022-12-05T11:38:05;38.60;;;16.43;;
5612;SDS011;63463;53.586;9.928;2022-12-05T11:43:21;42.07;;;16.33;;
5612;SDS011;63463;53.586;9.928;2022-12-05T11:45:56;44.97;;;17.73;;
5612;SDS011;63463;53.586;9.928;2022-12-05T11:56:00;35.83;;;17.03;;
5612;SDS011;63463;53.586;9.928;2022-12-05T12:06:30;43.80;;;15.87;;
5612;SDS011;63463;53.586;9.928;2022-12-05T12:11:35;35.00;;;16.47;;
5612;SDS011;63463;53.586;9.928;2022-12-05T12:16:38;43.17;;;17.00;;
5612;SDS011;63463;53.586;9.928;2022-12-05T12:21:41;34.80;;;15.40;;
5612;SDS011;63463;53.586;9.928;2022-12-05T12:32:02;36.47;;;15.90;;
5612;SDS011;63463;53.586;9.928;2022-12-05T12:34:36;31.60;;;15.30;;
5612;SDS011;63463;53.586;9.928;2022-12-05T12:37:11;37.40;;;15.40;;
5612;SDS011;63463;53.586;9.928;2022-12-05T12:39:44;36.50;;;15.50;;
5612;SDS011;63463;53.586;9.928;2022-12-05T12:47:14;37.63;;;16.30;;
5612;SDS011;63463;53.586;9.928;2022-12-05T12:52:16;39.33;;;16.07;;
5612;SDS011;63463;53.586;9.928;2022-12-05T12:57:25;41.97;;;15.53;;
5612;SDS011;63463;53.586;9.928;2022-12-05T13:00:19;40.20;;;16.40;;
5612;SDS011;63463;53.586;9.928;2022-12-05T13:02:50;31.73;;;16.07;;
5612;SDS011;63463;53.586;9.928;2022-12-05T13:07:49;36.17;;;16.80;;
5612;SDS011;63463;53.586;9.928;2022-12-05T13:10:19;31.07;;;15.57;;
5612;SDS011;63463;53.586;9.928;2022-12-05T13:12:47;34.40;;;16.23;;
5612;SDS011;63463;53.586;9.928;2022-12-05T13:15:14;36.93;;;16.57;;
5612;SDS011;63463;53.586;9.928;2022-12-05T13:17:41;42.40;;;15.40;;
5612;SDS011;63463;53.586;9.928;2022-12-05T13:20:27;31.00;;;15.53;;
5612;SDS011;63463;53.586;9.928;2022-12-05T13:22:55;41.23;;;16.00;;
5612;SDS011;63463;53.586;9.928;2022-12-05T13:25:22;35.53;;;15.90;;
5612;SDS011;63463;53.586;9.928;2022-12-05T13:28:15;40.93;;;15.80;;
5612;SDS011;63463;53.586;9.928;2022-12-05T13:30:38;45.77;;;15.37;;
5612;SDS011;63463;53.586;9.928;2022-12-05T13:33:21;34.10;;;16.27;;
5612;SDS011;63463;53.586;9.928;2022-12-05T13:35:49;32.70;;;14.67;;
5612;SDS011;63463;53.586;9.928;2022-12-05T13:38:38;34.60;;;16.40;;
5612;SDS011;63463;53.586;9.928;2022-12-05T13:41:43;38.40;;;16.70;;
5612;SDS011;63463;53.586;9.928;2022-12-05T13:44:36;32.80;;;14.67;;
5612;SDS011;63463;53.586;9.928;2022-12-05T13:47:03;44.60;;;15.30;;
5612;SDS011;63463;53.586;9.928;2022-12-05T13:49:34;30.80;;;14.70;;
5612;SDS011;63463;53.586;9.928;2022-12-05T13:52:07;32.83;;;15.40;;
5612;SDS011;63463;53.586;9.928;2022-12-05T13:54:34;29.83;;;14.13;;
5612;SDS011;63463;53.586;9.928;2022-12-05T13:57:13;34.63;;;16.37;;
5612;SDS011;63463;53.586;9.928;2022-12-05T14:07:44;31.87;;;14.87;;
5612;SDS011;63463;53.586;9.928;2022-12-05T14:10:12;33.63;;;16.53;;
5612;SDS011;63463;53.586;9.928;2022-12-05T14:18:09;38.43;;;14.47;;
5612;SDS011;63463;53.586;9.928;2022-12-05T14:28:56;31.30;;;15.40;;
5612;SDS011;63463;53.586;9.928;2022-12-05T14:31:41;29.50;;;13.97;;
5612;SDS011;63463;53.586;9.928;2022-12-05T14:34:51;32.47;;;13.67;;
5612;SDS011;63463;53.586;9.928;2022-12-05T14:39:49;26.27;;;14.07;;
5612;SDS011;63463;53.586;9.928;2022-12-05T14:42:19;29.57;;;12.77;;
5612;SDS011;63463;53.586;9.928;2022-12-05T14:44:46;28.80;;;12.70;;
5612;SDS011;63463;53.586;9.928;2022-12-05T14:47:16;25.33;;;13.00;;
5612;SDS011;63463;53.586;9.928;2022-12-05T14:49:51;23.10;;;11.70;;
5612;SDS011;63463;53.586;9.928;2022-12-05T14:52:21;19.90;;;12.00;;
5612;SDS011;63463;53.586;9.928;2022-12-05T14:54:52;24.30;;;13.53;;
5612;SDS011;63463;53.586;9.928;2022-12-05T14:57:18;24.23;;;13.63;;
5612;SDS011;63463;53.586;9.928;2022-12-05T14:59:48;19.27;;;12.33;;
5612;SDS011;63463;53.586;9.928;2022-12-05T15:02:21;22.53;;;12.20;;
5612;SDS011;63463;53.586;9.928;2022-12-05T15:04:57;22.87;;;12.07;;
5612;SDS011;63463;53.586;9.928;2022-12-05T15:07:26;20.50;;;12.10;;
5612;SDS011;63463;53.586;9.928;2022-12-05T15:12:22;21.83;;;12.07;;
5612;SDS011;63463;53.586;9.928;2022-12-05T15:14:51;19.63;;;12.20;;
5612;SDS011;63463;53.586;9.928;2022-12-05T15:17:20;20.97;;;12.27;;
5612;SDS011;63463;53.586;9.928;2022-12-05T15:19:54;21.33;;;12.20;;
5612;SDS011;63463;53.586;9.928;2022-12-05T15:22:21;19.67;;;12.07;;
5612;SDS011;63463;53.586;9.928;2022-12-05T15:24:49;23.00;;;12.90;;
5612;SDS011;63463;53.586;9.928;2022-12-05T15:27:15;20.47;;;11.50;;
5612;SDS011;63463;53.586;9.928;2022-12-05T15:29:41;23.30;;;11.83;;
5612;SDS011;63463;53.586;9.928;2022-12-05T15:39:51;18.63;;;11.77;;
5612;SDS011;63463;53.586;9.928;2022-12-05T15:42:21;23.63;;;12.70;;
5612;SDS011;63463;53.586;9.928;2022-12-05T15:44:47;24.27;;;12.40;;
5612;SDS011;63463;53.586;9.928;2022-12-05T15:47:31;18.83;;;11.93;;
5612;SDS011;63463;53.586;9.928;2022-12-05T15:49:58;22.93;;;12.13;;
5612;SDS011;63463;53.586;9.928;2022-12-05T15:52:27;28.23;;;13.23;;
5612;SDS011;63463;53.586;9.928;2022-12-05T15:54:55;21.60;;;12.33;;
5612;SDS011;63463;53.586;9.928;2022-12-05T15:57:26;23.47;;;13.83;;
5612;SDS011;63463;53.586;9.928;2022-12-05T16:00:35;20.10;;;12.83;;
5612;SDS011;63463;53.586;9.928;2022-12-05T16:02:54;21.93;;;11.43;;
5612;SDS011;63463;53.586;9.928;2022-12-05T16:05:29;18.40;;;11.33;;
5612;SDS011;63463;53.586;9.928;2022-12-05T16:07:59;23.47;;;11.90;;
5612;SDS011;63463;53.586;9.928;2022-12-05T16:10:26;23.70;;;12.17;;
5612;SDS011;63463;53.586;9.928;2022-12-05T16:12:52;19.30;;;12.70;;
5612;SDS011;63463;53.586;9.928;2022-12-05T16:15:25;24.97;;;12.80;;
5612;SDS011;63463;53.586;9.928;2022-12-05T16:17:55;20.20;;;12.20;;
5612;SDS011;63463;53.586;9.928;2022-12-05T16:20:22;18.30;;;11.07;;
5612;SDS011;63463;53.586;9.928;2022-12-05T16:22:50;17.27;;;10.47;;
5612;SDS011;63463;53.586;9.928;2022-12-05T16:25:18;15.80;;;10.40;;
5612;SDS011;63463;53.586;9.928;2022-12-05T16:31:17;16.30;;;11.03;;
5612;SDS011;63463;53.586;9.928;2022-12-05T16:33:36;18.10;;;11.07;;
5612;SDS011;63463;53.586;9.928;2022-12-05T16:36:06;16.77;;;10.17;;
5612;SDS011;63463;53.586;9.928;2022-12-05T16:38:32;17.70;;;10.80;;
5612;SDS011;63463;53.586;9.928;2022-12-05T16:40:59;16.40;;;11.30;;
5612;SDS011;63463;53.586;9.928;2022-12-05T16:45:52;13.93;;;9.90;;
5612;SDS011;63463;53.586;9.928;2022-12-05T16:50:45;15.17;;;10.30;;
5612;SDS011;63463;53.586;9.928;2022-12-05T16:53:13;17.73;;;10.63;;
5612;SDS011;63463;53.586;9.928;2022-12-05T16:55:40;17.73;;;10.30;;
5612;SDS011;63463;53.586;9.928;2022-12-05T16:58:08;15.37;;;10.40;;
5612;SDS011;63463;53.586;9.928;2022-12-05T17:00:35;16.60;;;11.00;;
5612;SDS011;63463;53.586;9.928;2022-12-05T17:03:02;19.93;;;11.57;;
5612;SDS011;63463;53.586;9.928;2022-12-05T17:05:28;15.93;;;10.40;;
5612;SDS011;63463;53.586;9.928;2022-12-05T17:07:54;20.40;;;12.57;;
5612;SDS011;63463;53.586;9.928;2022-12-05T17:10:20;24.47;;;14.90;;